Time;durP1;ratioP1;P1;durP2;ratioP2;P2;SDS_P1;SDS_P2;PMS_P1;PMS_P2;Temp;Humidity;BMP_temperature;BMP_pressure;BME280_temperature;BME280_humidity;BME280_pressure;Samples;Min_cycle;Max_cycle;Signal;HPM_P1;HPM_P2
2022/01/05 00:02:22;;;;;;;2.10;1.90;;;;;;;3.35;100.00;94738.50;10535875;28;20593;-81
2022/01/05 00:07:23;;;;;;;3.30;1.80;;;;;;;3.22;100.00;94733.81;10535182;28;20252;-80
2022/01/05 00:12:23;;;;;;;2.00;1.80;;;;;;;3.26;100.00;94726.53;10535337;28;20213;-80
2022/01/05 00:17:23;;;;;;;2.80;1.40;;;;;;;3.19;100.00;94713.44;10535832;28;20331;-80
2022/01/05 00:22:24;;;;;;;1.17;1.10;;;;;;;3.08;100.00;94717.16;10534622;28;20339;-80
2022/01/05 00:27:24;;;;;;;1.17;1.10;;;;;;;3.06;100.00;94732.00;10535637;28;20681;-81
2022/01/05 00:32:25;;;;;;;1.70;1.40;;;;;;;3.12;100.00;94726.19;10516721;28;20211;-81
2022/01/05 00:37:25;;;;;;;1.00;0.97;;;;;;;3.07;100.00;94723.28;10534928;28;20239;-80
2022/01/05 00:42:26;;;;;;;1.40;1.30;;;;;;;3.00;100.00;94717.13;10534416;28;20660;-81
2022/01/05 00:47:26;;;;;;;1.60;1.40;;;;;;;2.94;100.00;94704.81;10534904;28;20190;-80
2022/01/05 00:52:26;;;;;;;1.90;1.40;;;;;;;2.95;100.00;94690.94;10534326;28;20222;-81
2022/01/05 00:57:27;;;;;;;2.23;1.20;;;;;;;2.89;100.00;94694.94;10536774;28;20179;-80
2022/01/05 01:02:27;;;;;;;2.70;1.50;;;;;;;2.93;100.00;94696.25;10523980;28;20187;-80
2022/01/05 01:07:28;;;;;;;1.33;1.23;;;;;;;2.89;100.00;94705.28;10541629;28;20191;-80
2022/01/05 01:12:28;;;;;;;1.20;1.10;;;;;;;2.94;100.00;94715.16;10541502;28;20313;-79
2022/01/05 01:17:28;;;;;;;1.23;1.13;;;;;;;2.89;100.00;94699.31;10541511;28;20186;-79
2022/01/05 01:22:31;;;;;;;2.40;1.20;;;;;;;2.97;100.00;94701.91;10506256;28;20574;-79
2022/01/05 01:27:31;;;;;;;1.23;1.13;;;;;;;3.03;100.00;94678.00;10523476;28;20723;-79
2022/01/05 01:32:32;;;;;;;1.33;1.20;;;;;;;2.98;100.00;94665.53;10541017;28;20260;-79
2022/01/05 01:37:32;;;;;;;2.30;1.30;;;;;;;2.98;100.00;94673.31;10540061;28;20230;-79
2022/01/05 01:42:33;;;;;;;1.00;0.97;;;;;;;2.97;100.00;94670.88;10540711;28;20201;-79
2022/01/05 01:47:33;;;;;;;2.03;1.20;;;;;;;3.02;100.00;94666.06;10540125;28;20185;-78
2022/01/05 01:52:34;;;;;;;1.10;1.00;;;;;;;3.07;100.00;94670.75;10540201;28;20226;-79
2022/01/05 01:57:36;;;;;;;1.23;1.20;;;;;;;3.06;100.00;94669.13;10539930;28;20595;-79
2022/01/05 02:02:37;;;;;;;1.00;1.00;;;;;;;3.10;100.00;94673.81;10520735;28;20513;-78
2022/01/05 02:07:37;;;;;;;1.10;0.80;;;;;;;3.17;100.00;94661.03;10539501;28;20190;-78
2022/01/05 02:12:38;;;;;;;0.70;0.70;;;;;;;3.19;100.00;94659.91;10538341;28;20214;-78
2022/01/05 02:17:57;;;;;;;0.97;0.80;;;;;;;3.24;100.00;94656.03;10538969;28;20191;-78
2022/01/05 02:22:58;;;;;;;0.60;0.60;;;;;;;3.23;100.00;94650.03;10538691;28;20190;-78
2022/01/05 02:27:58;;;;;;;3.40;0.70;;;;;;;3.19;100.00;94659.91;10539111;28;20190;-79
2022/01/05 02:33:00;;;;;;;0.60;0.60;;;;;;;3.40;100.00;94666.38;10538365;28;20211;-79
2022/01/05 02:38:00;;;;;;;0.60;0.60;;;;;;;3.38;100.00;94651.03;10537433;28;20234;-79
2022/01/05 02:43:00;;;;;;;0.60;0.60;;;;;;;3.36;100.00;94652.16;10536105;28;20633;-79
2022/01/05 02:48:01;;;;;;;0.60;0.60;;;;;;;3.46;100.00;94647.63;10535664;28;20252;-78
2022/01/05 02:53:01;;;;;;;0.60;0.60;;;;;;;3.44;100.00;94641.78;10536083;28;20221;-78
2022/01/05 02:58:02;;;;;;;0.70;0.70;;;;;;;3.31;100.00;94650.03;10536099;28;20552;-78
2022/01/05 03:03:02;;;;;;;0.60;0.60;;;;;;;3.34;100.00;94635.97;10535294;28;20186;-79
2022/01/05 03:08:03;;;;;;;0.97;0.70;;;;;;;3.27;100.00;94628.03;10533715;28;20293;-78
2022/01/05 03:13:04;;;;;;;3.20;2.63;;;;;;;3.24;100.00;94636.13;10535675;28;20225;-79
2022/01/05 03:18:05;;;;;;;1.23;1.13;;;;;;;3.20;100.00;94637.41;10517051;28;20186;-78
2022/01/05 03:23:05;;;;;;;0.83;0.80;;;;;;;3.17;100.00;94646.34;10516730;28;20191;-78
2022/01/05 03:28:07;;;;;;;0.70;0.70;;;;;;;3.16;100.00;94624.00;10517094;28;20187;-79
2022/01/05 03:33:15;;;;;;;0.60;0.60;;;;;;;3.22;100.00;94627.72;10516483;28;20210;-79
2022/01/05 03:38:17;;;;;;;0.70;0.70;;;;;;;3.15;100.00;94627.56;10500173;28;1011168;-78
2022/01/05 03:43:18;;;;;;;1.33;0.90;;;;;;;3.15;100.00;94629.34;10517469;28;20263;-79
2022/01/05 03:48:19;;;;;;;1.13;0.90;;;;;;;3.17;100.00;94629.97;10536585;28;20290;-79
2022/01/05 03:53:19;;;;;;;3.67;2.27;;;;;;;3.20;100.00;94622.72;10536016;28;20218;-79
2022/01/05 03:58:20;;;;;;;0.77;0.77;;;;;;;3.27;100.00;94638.41;10536239;28;20626;-79
2022/01/05 04:03:20;;;;;;;0.60;0.60;;;;;;;3.27;100.00;94640.97;10514783;28;20235;-79
2022/01/05 04:08:21;;;;;;;1.50;0.53;;;;;;;3.31;100.00;94636.31;10512231;28;20197;-79
2022/01/05 04:13:21;;;;;;;0.50;0.50;;;;;;;3.32;100.00;94620.63;10509407;28;20237;-78
2022/01/05 04:18:21;;;;;;;0.70;0.70;;;;;;;3.44;100.00;94636.59;10509884;28;20205;-78
2022/01/05 04:23:22;;;;;;;0.50;0.50;;;;;;;3.36;100.00;94672.84;10528510;28;20259;-79
2022/01/05 04:28:22;;;;;;;0.60;0.47;;;;;;;3.51;100.00;94647.13;10493349;28;20210;-78
2022/01/05 04:33:22;;;;;;;0.50;0.50;;;;;;;3.45;100.00;94653.75;10514512;28;20797;-79
2022/01/05 04:38:23;;;;;;;0.67;0.53;;;;;;;3.49;100.00;94636.94;10496246;28;20702;-79
2022/01/05 04:43:23;;;;;;;2.43;0.70;;;;;;;3.41;100.00;94636.94;10493262;28;20704;-78
2022/01/05 04:48:24;;;;;;;0.50;0.50;;;;;;;3.32;100.00;94648.25;10475510;28;20730;-78
2022/01/05 04:53:24;;;;;;;0.50;0.50;;;;;;;3.17;100.00;94635.97;10493641;28;20249;-79
2022/01/05 04:58:24;;;;;;;0.40;0.40;;;;;;;3.14;100.00;94625.97;10493168;28;20195;-80
2022/01/05 05:03:25;;;;;;;0.50;0.50;;;;;;;3.17;100.00;94635.97;10497410;28;20265;-79
2022/01/05 05:08:25;;;;;;;0.40;0.40;;;;;;;3.11;100.00;94630.63;10500542;28;20249;-80
2022/01/05 05:13:25;;;;;;;0.50;0.50;;;;;;;3.07;100.00;94627.56;10499415;28;20300;-79
2022/01/05 05:18:26;;;;;;;0.40;0.40;;;;;;;3.00;100.00;94624.00;10499932;28;20234;-79
2022/01/05 05:23:27;;;;;;;0.40;0.40;;;;;;;2.97;100.00;94630.31;10499429;28;20191;-79
2022/01/05 05:28:27;;;;;;;0.50;0.50;;;;;;;2.98;100.00;94621.56;10481493;28;20183;-79
2022/01/05 05:33:27;;;;;;;0.50;0.50;;;;;;;2.94;100.00;94627.22;10499273;28;20225;-80
2022/01/05 05:38:28;;;;;;;0.50;0.50;;;;;;;2.97;100.00;94627.75;10520648;28;20257;-80
2022/01/05 05:43:29;;;;;;;0.70;0.60;;;;;;;3.00;100.00;94630.00;10539482;28;20214;-79
2022/01/05 05:48:29;;;;;;;0.47;0.47;;;;;;;3.00;100.00;94629.19;10521943;28;20590;-79
2022/01/05 05:53:29;;;;;;;0.50;0.50;;;;;;;3.07;100.00;94650.06;10540397;28;20214;-79
2022/01/05 05:58:30;;;;;;;0.40;0.40;;;;;;;3.16;100.00;94647.28;10539715;28;20204;-79
2022/01/05 06:03:30;;;;;;;0.50;0.50;;;;;;;3.15;100.00;94655.22;10539829;28;20228;-80
2022/01/05 06:08:30;;;;;;;0.50;0.50;;;;;;;3.09;100.00;94645.50;10539778;28;20296;-79
2022/01/05 06:13:31;;;;;;;0.50;0.50;;;;;;;3.09;100.00;94646.31;10538952;28;20226;-80
2022/01/05 06:18:31;;;;;;;0.57;0.57;;;;;;;3.24;100.00;94662.00;10539344;28;20197;-79
2022/01/05 06:23:31;;;;;;;0.50;0.50;;;;;;;3.28;100.00;94660.72;10539099;28;20183;-80
2022/01/05 06:28:32;;;;;;;1.80;0.40;;;;;;;3.15;100.00;94679.28;10538624;28;20221;-80
2022/01/05 06:33:32;;;;;;;0.40;0.40;;;;;;;2.88;100.00;94703.69;10520405;28;20843;-81
2022/01/05 06:38:33;;;;;;;0.83;0.40;;;;;;;2.67;100.00;94727.41;10519980;28;20705;-81
2022/01/05 06:43:34;;;;;;;0.80;0.80;;;;;;;1.71;100.00;94749.03;10538048;28;20233;-82
2022/01/05 06:48:34;;;;;;;1.20;0.97;;;;;;;0.87;100.00;94766.50;10537786;28;20202;-83
2022/01/05 06:53:35;;;;;;;1.10;1.10;;;;;;;0.32;100.00;94785.31;10519274;28;20233;-81
2022/01/05 06:58:35;;;;;;;1.20;1.10;;;;;;;0.01;100.00;94807.94;10537260;28;20559;-80
2022/01/05 07:03:35;;;;;;;1.03;0.93;;;;;;;-0.08;100.00;94830.16;10537141;28;20616;-79
2022/01/05 07:08:36;;;;;;;1.40;1.30;;;;;;;-0.20;100.00;94852.63;10537105;28;20193;-79
2022/01/05 07:13:36;;;;;;;2.60;1.60;;;;;;;-0.19;100.00;94867.13;10536878;28;20215;-79
2022/01/05 07:18:37;;;;;;;1.63;1.20;;;;;;;-0.13;100.00;94873.50;10537162;28;20201;-79
2022/01/05 07:23:37;;;;;;;2.13;1.63;;;;;;;-0.22;100.00;94880.28;10518073;28;20528;-80
2022/01/05 07:28:37;;;;;;;1.90;1.23;;;;;;;-0.18;100.00;94897.06;10536749;28;20195;-80
2022/01/05 07:33:38;;;;;;;2.53;1.40;;;;;;;-0.24;100.00;94913.06;10536174;28;20230;-79
2022/01/05 07:38:38;;;;;;;1.30;1.13;;;;;;;-0.26;100.00;94935.50;10518004;28;20230;-79
2022/01/05 07:43:38;;;;;;;2.27;1.20;;;;;;;-0.19;100.00;94916.03;10535512;28;20194;-80
2022/01/05 07:48:39;;;;;;;1.97;1.23;;;;;;;-0.25;100.00;94935.38;10518473;28;20189;-79
2022/01/05 07:53:39;;;;;;;5.97;1.20;;;;;;;-0.25;100.00;94963.69;10535425;28;20713;-79
2022/01/05 07:58:40;;;;;;;3.63;1.40;;;;;;;-0.19;100.00;94965.72;10536365;28;20186;-79
2022/01/05 08:03:40;;;;;;;5.87;1.43;;;;;;;-0.41;100.00;94964.22;10524161;28;20193;-78
2022/01/05 08:08:41;;;;;;;2.03;1.03;;;;;;;-0.34;100.00;94969.63;10520044;28;20197;-79
2022/01/05 08:13:41;;;;;;;1.13;1.10;;;;;;;-0.23;100.00;94977.25;10543293;28;20261;-79
2022/01/05 08:18:41;;;;;;;1.70;1.60;;;;;;;-0.34;100.00;94979.91;10541955;28;20211;-78
2022/01/05 08:23:42;;;;;;;4.13;1.90;;;;;;;-0.19;100.00;94986.31;10541591;28;20208;-78
2022/01/05 08:28:42;;;;;;;2.83;1.67;;;;;;;-0.19;100.00;95001.75;10542522;28;20191;-79
2022/01/05 08:33:42;;;;;;;1.90;1.80;;;;;;;-0.14;100.00;95014.22;10540087;28;20214;-78
2022/01/05 08:38:43;;;;;;;4.27;1.70;;;;;;;-0.31;100.00;95014.88;10541102;28;20227;-77
2022/01/05 08:43:43;;;;;;;1.40;1.30;;;;;;;-0.19;100.00;95014.63;10522861;28;20194;-78
2022/01/05 08:48:43;;;;;;;3.10;1.43;;;;;;;-0.15;100.00;95007.47;10540645;28;20228;-78
2022/01/05 08:53:44;;;;;;;4.20;1.53;;;;;;;-0.15;100.00;95019.50;10539427;28;20632;-79
2022/01/05 08:58:44;;;;;;;3.67;1.07;;;;;;;-0.17;100.00;95034.28;10514329;28;20223;-78
2022/01/05 09:03:45;;;;;;;3.33;1.17;;;;;;;-0.43;100.00;95052.75;10489036;28;20667;-78
2022/01/05 09:08:45;;;;;;;2.30;1.27;;;;;;;-0.32;100.00;95055.22;10539207;28;20194;-78
2022/01/05 09:13:46;;;;;;;4.00;1.37;;;;;;;-0.30;100.00;95075.69;10519663;28;20218;-78
2022/01/05 09:18:46;;;;;;;2.93;1.20;;;;;;;-0.54;100.00;95084.50;10535960;28;20194;-78
2022/01/05 09:23:47;;;;;;;1.67;1.30;;;;;;;-0.56;100.00;95083.84;10515225;28;20561;-79
2022/01/05 09:28:49;;;;;;;4.17;1.70;;;;;;;-0.75;100.00;95085.38;10514493;28;20213;-79
2022/01/05 09:33:49;;;;;;;7.97;2.37;;;;;;;-0.65;100.00;95095.69;10498472;28;20621;-78
2022/01/05 09:43:55;;;;;;;4.80;1.40;;;;;;;-0.57;100.00;95092.50;10538496;28;20179;-78
2022/01/05 09:49:06;;;;;;;3.60;1.40;;;;;;;-0.69;100.00;95084.03;10538614;28;20340;-78
2022/01/05 09:54:09;;;;;;;4.80;2.20;;;;;;;-0.45;100.00;95075.22;10502828;28;20214;-78
2022/01/05 09:59:09;;;;;;;7.57;3.73;;;;;;;-0.27;100.00;95083.16;10520306;28;20183;-79
2022/01/05 10:04:11;;;;;;;1.80;1.67;;;;;;;-0.58;100.00;95083.16;10518980;28;20194;-78
2022/01/05 10:09:12;;;;;;;4.80;1.77;;;;;;;-0.73;100.00;95087.81;10518716;28;20228;-79
2022/01/05 10:14:13;;;;;;;4.23;2.50;;;;;;;-0.65;100.00;95069.19;10537818;28;20210;-79
2022/01/05 10:19:21;;;;;;;6.57;2.00;;;;;;;-0.52;100.00;95076.66;10536959;28;20297;-79
2022/01/05 10:24:40;;;;;;;10.87;4.27;;;;;;;-0.44;100.00;95087.16;10518586;28;20212;-79
2022/01/05 10:29:52;;;;;;;9.50;3.30;;;;;;;-0.34;100.00;95094.88;10535681;28;20183;-79
2022/01/05 10:35:12;;;;;;;6.13;2.53;;;;;;;-0.46;100.00;95107.03;10536893;28;20288;-79
2022/01/05 10:40:19;;;;;;;7.57;3.70;;;;;;;-0.39;100.00;95092.72;10516709;28;20245;-78
2022/01/05 10:45:38;;;;;;;11.87;3.40;;;;;;;-0.47;100.00;95119.06;10535582;28;20186;-79
2022/01/05 10:50:39;;;;;;;5.77;2.80;;;;;;;-0.25;100.00;95123.22;10535517;28;20193;-78
2022/01/05 10:55:42;;;;;;;4.83;2.90;;;;;;;-0.26;100.00;95123.34;10536093;28;20598;-79
2022/01/05 11:00:47;;;;;;;5.63;2.83;;;;;;;-0.02;100.00;95108.41;10534838;28;20195;-79
2022/01/05 11:06:07;;;;;;;13.10;3.00;;;;;;;0.46;100.00;95118.94;10517305;28;20243;-79
2022/01/05 11:11:36;;;;;;;9.57;2.60;;;;;;;0.27;100.00;95128.25;10516377;28;20274;-79
2022/01/05 11:16:37;;;;;;;8.47;2.30;;;;;;;0.63;100.00;95097.69;10535011;28;20218;-79
2022/01/05 11:21:39;;;;;;;6.20;2.00;;;;;;;1.18;100.00;95080.78;10534111;28;20602;-79
2022/01/05 11:26:40;;;;;;;6.07;2.07;;;;;;;0.99;100.00;95079.88;10535426;28;20211;-77
2022/01/05 11:31:40;;;;;;;5.07;1.70;;;;;;;2.22;100.00;95064.31;10533782;28;20194;-78
2022/01/05 11:36:42;;;;;;;4.23;1.80;;;;;;;1.91;100.00;95072.38;10527371;28;20222;-77
2022/01/05 11:41:46;;;;;;;6.03;1.97;;;;;;;1.34;100.00;95090.53;10503869;28;20656;-76
2022/01/05 11:46:47;;;;;;;5.37;2.40;;;;;;;0.79;100.00;95098.91;10532650;28;20667;-76
2022/01/05 11:51:50;;;;;;;8.33;2.10;;;;;;;1.58;100.00;95095.22;10515190;28;20202;-76
2022/01/05 11:57:05;;;;;;;10.83;2.03;;;;;;;1.02;100.00;95076.22;10534494;28;20217;-77
2022/01/05 12:02:08;;;;;;;7.83;2.30;;;;;;;0.66;100.00;95094.03;10533270;28;20200;-77
2022/01/05 12:07:09;;;;;;;4.43;2.43;;;;;;;0.53;100.00;95083.97;10533426;28;20269;-77
2022/01/05 12:12:24;;;;;;;5.97;2.20;;;;;;;1.12;100.00;95079.59;10532753;28;20650;-76
2022/01/05 12:17:25;;;;;;;10.03;2.57;;;;;;;1.12;100.00;95061.53;10507971;28;20657;-75
2022/01/05 12:22:27;;;;;;;5.73;2.00;;;;;;;1.98;100.00;95060.53;10491816;28;20206;-76
2022/01/05 12:27:32;;;;;;;6.43;2.30;;;;;;;1.21;100.00;95070.19;10491019;28;20240;-76
2022/01/05 12:32:38;;;;;;;4.63;2.00;;;;;;;0.80;100.00;95088.44;10491796;28;20685;-76
2022/01/05 12:37:46;;;;;;;6.80;3.40;;;;;;;0.19;100.00;95099.78;10457420;28;20386;-76
2022/01/05 12:42:46;;;;;;;3.87;2.00;;;;;;;0.09;100.00;95099.78;10415314;28;20467;-76
2022/01/05 12:47:46;;;;;;;4.73;2.43;;;;;;;0.18;100.00;95103.31;10437628;28;20195;-76
2022/01/05 12:52:47;;;;;;;3.43;2.30;;;;;;;0.10;100.00;95103.16;10491336;28;20699;-76
2022/01/05 12:57:53;;;;;;;4.53;2.43;;;;;;;0.02;100.00;95116.69;10494196;28;20686;-76
2022/01/05 13:02:53;;;;;;;9.77;2.60;;;;;;;-0.11;100.00;95116.91;10495368;28;20202;-75
2022/01/05 13:07:54;;;;;;;7.63;2.50;;;;;;;-0.09;100.00;95116.78;10497928;28;20183;-76
2022/01/05 13:12:56;;;;;;;5.80;2.47;;;;;;;-0.15;100.00;95112.97;10470850;28;20314;-76
2022/01/05 13:17:57;;;;;;;3.33;1.87;;;;;;;-0.17;100.00;95109.72;10439508;28;20674;-76
2022/01/05 13:22:59;;;;;;;5.37;2.37;;;;;;;-0.20;100.00;95109.97;10486598;28;20745;-76
2022/01/05 13:28:03;;;;;;;5.03;1.77;;;;;;;-0.28;100.00;95112.38;10494665;28;20601;-76
2022/01/05 13:33:08;;;;;;;4.63;1.90;;;;;;;-0.37;100.00;95095.97;10478776;28;20215;-76
2022/01/05 13:38:12;;;;;;;4.37;1.80;;;;;;;-0.52;100.00;95092.94;10479372;28;20247;-75
2022/01/05 13:43:15;;;;;;;6.57;2.30;;;;;;;-0.58;100.00;95112.25;10495470;28;20191;-76
2022/01/05 13:48:27;;;;;;;4.00;1.73;;;;;;;-0.59;100.00;95102.09;10477271;28;20210;-76
2022/01/05 13:53:30;;;;;;;6.47;1.87;;;;;;;-0.61;100.00;95122.78;10477370;28;20227;-75
2022/01/05 13:58:33;;;;;;;2.97;1.80;;;;;;;-0.59;100.00;95130.38;10496330;28;20854;-76
2022/01/05 14:03:39;;;;;;;2.20;1.47;;;;;;;-0.62;100.00;95149.44;10495279;28;20274;-76
2022/01/05 14:08:41;;;;;;;7.80;2.33;;;;;;;-0.62;100.00;95157.16;10495353;28;20233;-76
2022/01/05 14:13:45;;;;;;;3.67;2.00;;;;;;;-0.57;100.00;95162.75;10495055;28;20215;-75
2022/01/05 14:18:46;;;;;;;8.00;2.00;;;;;;;-0.59;100.00;95172.34;10494932;28;20188;-76
2022/01/05 14:23:46;;;;;;;5.97;2.10;;;;;;;-0.47;100.00;95178.25;10495478;28;20191;-77
2022/01/05 14:28:47;;;;;;;7.17;2.50;;;;;;;-0.44;100.00;95187.47;10475281;28;20195;-75
2022/01/05 14:33:50;;;;;;;8.00;4.63;;;;;;;-0.51;100.00;95183.75;10474887;28;20211;-75
2022/01/05 14:38:52;;;;;;;7.90;2.37;;;;;;;-0.46;100.00;95182.44;10495384;28;20250;-76
2022/01/05 14:44:26;;;;;;;5.30;2.23;;;;;;;-0.46;100.00;95164.44;10511086;28;20281;-75
2022/01/05 14:49:28;;;;;;;5.83;3.00;;;;;;;-0.47;100.00;95174.88;10483672;28;20222;-76
2022/01/05 14:54:36;;;;;;;5.57;1.90;;;;;;;-0.46;100.00;95161.88;10535622;28;20214;-76
2022/01/05 14:59:36;;;;;;;3.83;2.17;;;;;;;-0.45;100.00;95173.78;10516561;28;20190;-77
2022/01/05 15:04:37;;;;;;;6.03;2.30;;;;;;;-0.72;100.00;95212.84;10517117;28;20686;-76
2022/01/05 15:09:42;;;;;;;9.10;2.27;;;;;;;-0.94;100.00;95196.59;10516955;28;20191;-76
2022/01/05 15:14:43;;;;;;;13.37;4.93;;;;;;;-0.91;100.00;95198.91;10509566;28;20214;-79
2022/01/05 15:19:44;;;;;;;8.53;3.07;;;;;;;-0.77;100.00;95195.22;10510337;28;20537;-79
2022/01/05 15:24:44;;;;;;;9.40;2.40;;;;;;;-0.63;100.00;95194.13;10495634;28;20182;-80
2022/01/05 15:29:45;;;;;;;10.10;2.20;;;;;;;-0.60;100.00;95218.75;10476993;28;20679;-78
2022/01/05 15:34:45;;;;;;;5.57;2.60;;;;;;;-0.55;100.00;95208.94;10492389;28;20219;-77
2022/01/05 15:39:45;;;;;;;4.67;2.20;;;;;;;-0.60;100.00;95211.88;10509325;28;20227;-77
2022/01/05 15:44:46;;;;;;;6.77;2.20;;;;;;;-0.63;100.00;95219.00;10501406;28;20274;-77
2022/01/05 15:49:47;;;;;;;6.60;2.70;;;;;;;-0.47;100.00;95234.03;10491509;28;20655;-77
2022/01/05 15:54:53;;;;;;;6.07;2.13;;;;;;;-0.58;100.00;95252.91;10491526;28;20230;-78
2022/01/05 16:05:13;;;;;;;7.40;2.83;;;;;;;-0.60;100.00;95267.63;10474553;28;20233;-78
2022/01/05 16:10:13;;;;;;;7.10;2.60;;;;;;;-0.35;100.00;95258.75;10490497;28;20241;-80
2022/01/05 16:15:15;;;;;;;4.07;1.60;;;;;;;-0.20;100.00;95278.06;10490814;28;20226;-78
2022/01/05 16:20:16;;;;;;;5.83;1.77;;;;;;;-0.16;100.00;95255.47;10489644;28;20188;-78
2022/01/05 16:25:16;;;;;;;6.13;2.17;;;;;;;-0.17;100.00;95263.31;10490837;28;20193;-78
2022/01/05 16:30:17;;;;;;;4.37;2.33;;;;;;;-0.20;100.00;95285.78;10496153;28;20651;-79
2022/01/05 16:35:17;;;;;;;5.60;2.43;;;;;;;-0.14;100.00;95274.16;10497535;28;20678;-78
2022/01/05 16:40:17;;;;;;;5.53;3.00;;;;;;;-0.10;100.00;95260.09;10497430;28;20587;-78
2022/01/05 16:45:18;;;;;;;6.27;3.53;;;;;;;-0.03;100.00;95281.00;10498410;28;20187;-78
2022/01/05 16:50:18;;;;;;;4.57;1.97;;;;;;;0.09;100.00;95274.88;10496937;28;20202;-78
2022/01/05 16:55:20;;;;;;;4.47;1.83;;;;;;;0.11;100.00;95261.84;10497156;28;20218;-77
2022/01/05 17:00:27;;;;;;;9.37;3.20;;;;;;;0.16;100.00;95267.44;10497612;28;20579;-77
2022/01/05 17:05:29;;;;;;;13.27;4.83;;;;;;;0.14;100.00;95279.63;10496052;28;20192;-77
2022/01/05 17:10:30;;;;;;;18.13;5.17;;;;;;;0.17;100.00;95282.75;10496553;28;20245;-77
2022/01/05 17:15:31;;;;;;;4.90;1.80;;;;;;;0.21;100.00;95273.00;10494578;28;20717;-76
2022/01/05 17:20:31;;;;;;;3.10;1.60;;;;;;;0.19;100.00;95269.75;10493496;28;20198;-76
2022/01/05 17:25:32;;;;;;;4.50;2.43;;;;;;;0.14;100.00;95277.06;10496316;28;20197;-76
2022/01/05 17:30:32;;;;;;;3.50;2.37;;;;;;;0.22;100.00;95279.00;10498285;28;20651;-76
2022/01/05 17:35:33;;;;;;;2.40;1.87;;;;;;;0.24;100.00;95292.53;10498799;28;20244;-76
2022/01/05 17:40:34;;;;;;;2.57;2.00;;;;;;;0.25;100.00;95292.41;10498453;28;20235;-76
2022/01/05 17:45:34;;;;;;;2.17;1.70;;;;;;;0.34;100.00;95289.06;10498416;28;20187;-77
2022/01/05 17:50:35;;;;;;;5.53;1.50;;;;;;;0.35;100.00;95295.84;10497754;28;20222;-77
2022/01/05 17:55:37;;;;;;;4.90;1.63;;;;;;;0.25;100.00;95300.13;10497316;28;20215;-77
2022/01/05 18:00:42;;;;;;;4.80;1.80;;;;;;;0.33;100.00;95305.44;10479093;28;20177;-76
2022/01/05 18:05:42;;;;;;;2.03;1.10;;;;;;;0.39;100.00;95305.91;10479613;28;20194;-77
2022/01/05 18:10:43;;;;;;;2.77;1.57;;;;;;;0.42;100.00;95305.66;10480133;28;20229;-77
2022/01/05 18:15:43;;;;;;;3.37;1.67;;;;;;;0.48;100.00;95312.84;10518527;28;20278;-77
2022/01/05 18:20:43;;;;;;;3.10;2.10;;;;;;;0.42;100.00;95310.78;10537735;28;20189;-78
2022/01/05 18:25:44;;;;;;;4.20;1.97;;;;;;;0.49;100.00;95319.63;10537907;28;20217;-78
2022/01/05 18:30:44;;;;;;;4.80;1.57;;;;;;;0.51;100.00;95323.72;10537205;28;20281;-77
2022/01/05 18:35:44;;;;;;;3.93;1.70;;;;;;;0.51;100.00;95322.91;10538510;28;20240;-78
2022/01/05 18:40:46;;;;;;;4.30;1.50;;;;;;;0.50;100.00;95340.09;10536915;28;20792;-79
2022/01/05 18:45:47;;;;;;;3.20;1.40;;;;;;;0.64;100.00;95346.69;10517634;28;20190;-77
2022/01/05 18:50:47;;;;;;;3.57;1.80;;;;;;;0.60;100.00;95353.06;10512708;28;20187;-77
2022/01/05 18:55:47;;;;;;;3.17;1.93;;;;;;;0.59;100.00;95348.03;10468487;28;20279;-77
2022/01/05 19:00:48;;;;;;;3.23;1.57;;;;;;;0.62;100.00;95360.66;10506468;28;20227;-77
2022/01/05 19:05:48;;;;;;;1.43;1.27;;;;;;;0.73;100.00;95360.56;10535868;28;20187;-77
2022/01/05 19:10:49;;;;;;;6.03;1.80;;;;;;;0.67;100.00;95351.59;10536487;28;20182;-77
2022/01/05 19:15:49;;;;;;;1.73;1.37;;;;;;;0.68;100.00;95376.41;10516214;28;20229;-77
2022/01/05 19:20:51;;;;;;;1.60;1.40;;;;;;;0.77;100.00;95367.09;10525264;28;20195;-78
2022/01/05 19:25:51;;;;;;;3.33;1.83;;;;;;;0.71;100.00;95358.09;10534851;28;20183;-77
2022/01/05 19:30:52;;;;;;;3.50;1.70;;;;;;;0.79;100.00;95360.03;10534490;28;20966;-77
2022/01/05 19:35:52;;;;;;;2.60;2.00;;;;;;;0.69;100.00;95367.75;10533232;28;20637;-78
2022/01/05 19:40:53;;;;;;;4.20;1.93;;;;;;;0.65;100.00;95365.56;10522151;28;20649;-77
2022/01/05 19:45:53;;;;;;;5.00;2.00;;;;;;;0.61;100.00;95377.84;10513395;28;20193;-77
2022/01/05 19:51:04;;;;;;;3.60;1.80;;;;;;;0.66;100.00;95380.88;10495874;28;20193;-77
2022/01/05 20:01:22;;;;;;;4.50;1.80;;;;;;;0.61;100.00;95395.91;10492600;28;20291;-78
2022/01/05 20:06:22;;;;;;;1.37;1.30;;;;;;;0.66;100.00;95383.47;10492403;28;20190;-77
2022/01/05 20:11:23;;;;;;;2.37;1.73;;;;;;;0.63;100.00;95382.88;10492353;28;20205;-78
2022/01/05 20:16:24;;;;;;;2.30;2.10;;;;;;;0.71;100.00;95377.91;10492780;28;20576;-79
2022/01/05 20:21:24;;;;;;;3.57;2.10;;;;;;;0.73;100.00;95390.69;10492854;28;20247;-77
2022/01/05 20:26:24;;;;;;;4.20;1.87;;;;;;;0.67;100.00;95384.25;10491868;28;20189;-77
2022/01/05 20:31:25;;;;;;;1.63;1.53;;;;;;;0.74;100.00;95394.91;10491926;28;20286;-78
2022/01/05 20:36:25;;;;;;;3.70;2.07;;;;;;;0.75;100.00;95392.19;10487267;28;20240;-78
2022/01/05 20:41:25;;;;;;;6.03;2.23;;;;;;;0.82;100.00;95411.34;10449644;28;20199;-78
2022/01/05 20:46:26;;;;;;;3.53;2.00;;;;;;;0.68;100.00;95407.34;10450513;28;20191;-77
2022/01/05 20:51:27;;;;;;;2.17;1.87;;;;;;;0.69;100.00;95408.97;10450764;28;20193;-78
2022/01/05 20:56:27;;;;;;;3.83;2.17;;;;;;;0.67;100.00;95420.34;10431780;28;20225;-78
2022/01/05 21:01:29;;;;;;;3.07;1.80;;;;;;;0.62;100.00;95428.47;10453564;28;20224;-79
2022/01/05 21:06:29;;;;;;;1.97;1.77;;;;;;;0.66;100.00;95426.47;10454057;28;20667;-78
2022/01/05 21:11:29;;;;;;;3.30;2.00;;;;;;;0.54;100.00;95433.44;10491813;28;20285;-78
2022/01/05 21:16:30;;;;;;;1.90;1.80;;;;;;;0.42;100.00;95431.88;10498011;28;20228;-78
2022/01/05 21:21:31;;;;;;;3.63;1.80;;;;;;;0.34;100.00;95435.88;10500462;28;20530;-78
2022/01/05 21:26:31;;;;;;;4.40;2.17;;;;;;;0.39;100.00;95445.81;10500144;28;20228;-79
2022/01/05 21:31:31;;;;;;;3.57;1.80;;;;;;;0.49;100.00;95445.88;10500873;28;20284;-78
2022/01/05 21:36:32;;;;;;;3.13;2.83;;;;;;;0.56;100.00;95439.28;10506293;28;20266;-78
2022/01/05 21:41:32;;;;;;;3.87;2.50;;;;;;;0.62;100.00;95443.91;10540958;28;20190;-78
2022/01/05 21:46:33;;;;;;;2.80;2.50;;;;;;;0.64;100.00;95459.25;10540678;28;20192;-78
2022/01/05 21:51:33;;;;;;;4.90;2.50;;;;;;;0.66;100.00;95468.50;10540297;28;20543;-78
2022/01/05 21:56:33;;;;;;;3.57;2.13;;;;;;;0.55;100.00;95463.41;10540251;28;20570;-78
2022/01/05 22:01:34;;;;;;;3.07;2.40;;;;;;;0.46;100.00;95467.56;10540289;28;20547;-78
2022/01/05 22:06:34;;;;;;;5.63;2.40;;;;;;;0.45;100.00;95471.06;10520979;28;20279;-78
2022/01/05 22:11:37;;;;;;;4.40;2.53;;;;;;;0.55;100.00;95481.44;10539795;28;20196;-79
2022/01/05 22:16:37;;;;;;;5.00;2.50;;;;;;;0.67;100.00;95484.78;10539435;28;20241;-79
2022/01/05 22:21:38;;;;;;;2.87;1.97;;;;;;;0.70;100.00;95495.69;10539540;28;20194;-79
2022/01/05 22:26:38;;;;;;;3.87;2.10;;;;;;;0.76;100.00;95506.41;10538520;28;20711;-79
2022/01/05 22:31:39;;;;;;;4.67;2.43;;;;;;;0.79;100.00;95509.53;10539673;28;20204;-79
2022/01/05 22:36:40;;;;;;;3.00;2.00;;;;;;;0.66;100.00;95522.63;10520337;28;20271;-79
2022/01/05 22:41:40;;;;;;;3.07;2.23;;;;;;;0.60;100.00;95514.56;10538997;28;20630;-80
2022/01/05 22:46:43;;;;;;;5.23;2.27;;;;;;;0.64;100.00;95511.59;10538730;28;20179;-79
2022/01/05 22:51:43;;;;;;;4.13;2.20;;;;;;;0.67;100.00;95511.38;10538362;28;20601;-79
2022/01/05 22:56:44;;;;;;;4.53;2.00;;;;;;;0.70;100.00;95505.97;10520375;28;20266;-79
2022/01/05 23:01:46;;;;;;;5.00;2.47;;;;;;;0.60;100.00;95507.66;10538339;28;20214;-79
2022/01/05 23:06:46;;;;;;;4.67;2.60;;;;;;;0.61;100.00;95505.91;10537775;28;20191;-78
2022/01/05 23:11:48;;;;;;;4.17;2.60;;;;;;;0.62;100.00;95508.34;10537677;28;20252;-78
2022/01/05 23:16:49;;;;;;;4.60;2.33;;;;;;;0.69;100.00;95513.84;10537277;28;20228;-78
2022/01/05 23:21:49;;;;;;;2.87;1.70;;;;;;;0.71;100.00;95496.47;10537170;28;20552;-78
2022/01/05 23:26:50;;;;;;;3.63;2.20;;;;;;;0.60;100.00;95501.69;10537037;28;20206;-78
2022/01/05 23:31:50;;;;;;;4.20;2.10;;;;;;;0.56;100.00;95513.19;10537323;28;20199;-78